sensor_id;sensor_type;location;lat;lon;timestamp;temperature;humidity
75621;DHT22;64574;48.506;-2.750;2024-03-08T00:02:16;8.70;66.70
75621;DHT22;64574;48.506;-2.750;2024-03-08T00:04:42;8.70;66.50
75621;DHT22;64574;48.506;-2.750;2024-03-08T00:07:08;8.70;66.50
75621;DHT22;64574;48.506;-2.750;2024-03-08T00:09:34;8.70;66.50
75621;DHT22;64574;48.506;-2.750;2024-03-08T00:11:59;8.70;66.30
75621;DHT22;64574;48.506;-2.750;2024-03-08T00:14:26;8.70;66.10
75621;DHT22;64574;48.506;-2.750;2024-03-08T00:16:51;8.70;66.10
75621;DHT22;64574;48.506;-2.750;2024-03-08T00:19:18;8.60;66.00
75621;DHT22;64574;48.506;-2.750;2024-03-08T00:21:44;8.60;66.00
75621;DHT22;64574;48.506;-2.750;2024-03-08T00:24:10;8.60;65.90
75621;DHT22;64574;48.506;-2.750;2024-03-08T00:26:36;8.60;65.90
75621;DHT22;64574;48.506;-2.750;2024-03-08T00:29:01;8.60;65.80
75621;DHT22;64574;48.506;-2.750;2024-03-08T00:31:27;8.60;65.80
75621;DHT22;64574;48.506;-2.750;2024-03-08T00:33:53;8.60;65.80
75621;DHT22;64574;48.506;-2.750;2024-03-08T00:36:19;8.60;65.80
75621;DHT22;64574;48.506;-2.750;2024-03-08T00:38:46;8.60;65.70
75621;DHT22;64574;48.506;-2.750;2024-03-08T00:41:11;8.60;65.60
75621;DHT22;64574;48.506;-2.750;2024-03-08T00:43:37;8.60;65.70
75621;DHT22;64574;48.506;-2.750;2024-03-08T00:46:03;8.60;65.70
75621;DHT22;64574;48.506;-2.750;2024-03-08T00:48:29;8.60;65.60
75621;DHT22;64574;48.506;-2.750;2024-03-08T00:50:56;8.50;65.60
75621;DHT22;64574;48.506;-2.750;2024-03-08T00:53:22;8.60;65.60
75621;DHT22;64574;48.506;-2.750;2024-03-08T00:55:47;8.60;65.60
75621;DHT22;64574;48.506;-2.750;2024-03-08T00:58:14;8.50;65.80
75621;DHT22;64574;48.506;-2.750;2024-03-08T01:00:40;8.50;65.70
75621;DHT22;64574;48.506;-2.750;2024-03-08T01:03:05;8.50;65.80
75621;DHT22;64574;48.506;-2.750;2024-03-08T01:05:32;8.60;65.80
75621;DHT22;64574;48.506;-2.750;2024-03-08T01:07:58;8.50;65.80
75621;DHT22;64574;48.506;-2.750;2024-03-08T01:10:23;8.50;66.00
75621;DHT22;64574;48.506;-2.750;2024-03-08T01:12:49;8.50;65.90
75621;DHT22;64574;48.506;-2.750;2024-03-08T01:15:15;8.50;66.00
75621;DHT22;64574;48.506;-2.750;2024-03-08T01:17:41;8.50;66.00
75621;DHT22;64574;48.506;-2.750;2024-03-08T01:20:07;8.50;66.00
75621;DHT22;64574;48.506;-2.750;2024-03-08T01:22:36;8.40;66.10
75621;DHT22;64574;48.506;-2.750;2024-03-08T01:25:02;8.40;66.30
75621;DHT22;64574;48.506;-2.750;2024-03-08T01:27:30;8.40;66.20
75621;DHT22;64574;48.506;-2.750;2024-03-08T01:29:56;8.50;66.30
75621;DHT22;64574;48.506;-2.750;2024-03-08T01:32:22;8.50;66.40
75621;DHT22;64574;48.506;-2.750;2024-03-08T01:34:49;8.50;66.20
75621;DHT22;64574;48.506;-2.750;2024-03-08T01:37:15;8.40;66.40
75621;DHT22;64574;48.506;-2.750;2024-03-08T01:39:41;8.40;66.50
75621;DHT22;64574;48.506;-2.750;2024-03-08T01:42:06;8.40;66.60
75621;DHT22;64574;48.506;-2.750;2024-03-08T01:44:32;8.40;66.70
75621;DHT22;64574;48.506;-2.750;2024-03-08T01:46:58;8.30;66.90
75621;DHT22;64574;48.506;-2.750;2024-03-08T01:49:25;8.40;66.80
75621;DHT22;64574;48.506;-2.750;2024-03-08T01:51:52;8.40;66.80
75621;DHT22;64574;48.506;-2.750;2024-03-08T01:54:18;8.40;66.70
75621;DHT22;64574;48.506;-2.750;2024-03-08T01:56:45;8.40;66.70
75621;DHT22;64574;48.506;-2.750;2024-03-08T01:59:12;8.40;66.90
75621;DHT22;64574;48.506;-2.750;2024-03-08T02:01:38;8.40;66.90
75621;DHT22;64574;48.506;-2.750;2024-03-08T02:04:03;8.30;67.00
75621;DHT22;64574;48.506;-2.750;2024-03-08T02:06:31;8.30;67.00
75621;DHT22;64574;48.506;-2.750;2024-03-08T02:08:57;8.30;67.10
75621;DHT22;64574;48.506;-2.750;2024-03-08T02:11:22;8.30;67.10
75621;DHT22;64574;48.506;-2.750;2024-03-08T02:13:48;8.40;66.90
75621;DHT22;64574;48.506;-2.750;2024-03-08T02:16:20;8.40;66.80
75621;DHT22;64574;48.506;-2.750;2024-03-08T02:18:46;8.40;66.60
75621;DHT22;64574;48.506;-2.750;2024-03-08T02:21:12;8.30;66.90
75621;DHT22;64574;48.506;-2.750;2024-03-08T02:23:40;8.30;66.90
75621;DHT22;64574;48.506;-2.750;2024-03-08T02:26:05;8.30;66.80
75621;DHT22;64574;48.506;-2.750;2024-03-08T02:28:33;8.30;67.00
75621;DHT22;64574;48.506;-2.750;2024-03-08T02:30:59;8.30;66.90
75621;DHT22;64574;48.506;-2.750;2024-03-08T02:33:26;8.20;67.00
75621;DHT22;64574;48.506;-2.750;2024-03-08T02:35:52;8.30;67.10
75621;DHT22;64574;48.506;-2.750;2024-03-08T02:38:20;8.20;67.10
75621;DHT22;64574;48.506;-2.750;2024-03-08T02:40:46;8.20;67.40
75621;DHT22;64574;48.506;-2.750;2024-03-08T02:43:12;8.20;67.50
75621;DHT22;64574;48.506;-2.750;2024-03-08T02:45:38;8.20;67.40
75621;DHT22;64574;48.506;-2.750;2024-03-08T02:48:04;8.20;67.60
75621;DHT22;64574;48.506;-2.750;2024-03-08T02:50:32;8.10;67.70
75621;DHT22;64574;48.506;-2.750;2024-03-08T02:52:57;8.10;67.90
75621;DHT22;64574;48.506;-2.750;2024-03-08T02:55:23;8.10;67.90
75621;DHT22;64574;48.506;-2.750;2024-03-08T02:57:52;8.00;68.00
75621;DHT22;64574;48.506;-2.750;2024-03-08T03:00:18;8.00;68.40
75621;DHT22;64574;48.506;-2.750;2024-03-08T03:02:45;7.90;68.60
75621;DHT22;64574;48.506;-2.750;2024-03-08T03:05:14;8.00;68.60
75621;DHT22;64574;48.506;-2.750;2024-03-08T03:07:40;8.00;68.50
75621;DHT22;64574;48.506;-2.750;2024-03-08T03:10:06;8.10;68.20
75621;DHT22;64574;48.506;-2.750;2024-03-08T03:12:32;8.00;68.00
75621;DHT22;64574;48.506;-2.750;2024-03-08T03:14:59;8.00;68.20
75621;DHT22;64574;48.506;-2.750;2024-03-08T03:17:26;8.10;68.20
75621;DHT22;64574;48.506;-2.750;2024-03-08T03:19:54;8.00;68.20
75621;DHT22;64574;48.506;-2.750;2024-03-08T03:22:21;8.00;68.20
75621;DHT22;64574;48.506;-2.750;2024-03-08T03:24:46;8.00;68.00
75621;DHT22;64574;48.506;-2.750;2024-03-08T03:27:13;8.00;68.20
75621;DHT22;64574;48.506;-2.750;2024-03-08T03:29:39;8.00;68.10
75621;DHT22;64574;48.506;-2.750;2024-03-08T03:32:08;8.10;68.20
75621;DHT22;64574;48.506;-2.750;2024-03-08T03:34:34;8.10;68.10
75621;DHT22;64574;48.506;-2.750;2024-03-08T03:37:03;8.10;68.20
75621;DHT22;64574;48.506;-2.750;2024-03-08T03:39:29;8.00;68.20
75621;DHT22;64574;48.506;-2.750;2024-03-08T03:41:58;8.00;68.50
75621;DHT22;64574;48.506;-2.750;2024-03-08T03:44:24;7.90;68.70
75621;DHT22;64574;48.506;-2.750;2024-03-08T03:46:49;8.00;68.50
75621;DHT22;64574;48.506;-2.750;2024-03-08T03:49:18;8.00;68.50
75621;DHT22;64574;48.506;-2.750;2024-03-08T03:51:43;8.00;68.50
75621;DHT22;64574;48.506;-2.750;2024-03-08T03:54:10;7.90;68.70
75621;DHT22;64574;48.506;-2.750;2024-03-08T03:56:36;8.00;69.00
75621;DHT22;64574;48.506;-2.750;2024-03-08T03:59:02;8.00;68.70
75621;DHT22;64574;48.506;-2.750;2024-03-08T04:01:28;8.00;68.80
75621;DHT22;64574;48.506;-2.750;2024-03-08T04:03:55;7.90;68.90
75621;DHT22;64574;48.506;-2.750;2024-03-08T04:06:20;8.00;68.80
75621;DHT22;64574;48.506;-2.750;2024-03-08T04:08:46;8.00;68.80
75621;DHT22;64574;48.506;-2.750;2024-03-08T04:11:12;8.00;68.70
75621;DHT22;64574;48.506;-2.750;2024-03-08T04:13:37;7.90;69.10
75621;DHT22;64574;48.506;-2.750;2024-03-08T04:16:03;8.00;69.00
75621;DHT22;64574;48.506;-2.750;2024-03-08T04:18:34;7.80;69.00
75621;DHT22;64574;48.506;-2.750;2024-03-08T04:21:05;7.80;69.10
75621;DHT22;64574;48.506;-2.750;2024-03-08T04:23:34;7.80;69.20
75621;DHT22;64574;48.506;-2.750;2024-03-08T04:26:03;7.80;69.40
75621;DHT22;64574;48.506;-2.750;2024-03-08T04:28:31;7.80;69.60
75621;DHT22;64574;48.506;-2.750;2024-03-08T04:30:57;7.80;69.30
75621;DHT22;64574;48.506;-2.750;2024-03-08T04:33:22;7.80;69.30
75621;DHT22;64574;48.506;-2.750;2024-03-08T04:35:49;7.70;69.40
75621;DHT22;64574;48.506;-2.750;2024-03-08T04:38:14;7.80;69.60
75621;DHT22;64574;48.506;-2.750;2024-03-08T04:40:41;7.80;69.40
75621;DHT22;64574;48.506;-2.750;2024-03-08T04:43:07;7.70;69.60
75621;DHT22;64574;48.506;-2.750;2024-03-08T04:45:34;7.80;69.70
75621;DHT22;64574;48.506;-2.750;2024-03-08T04:48:00;7.80;69.50
75621;DHT22;64574;48.506;-2.750;2024-03-08T04:50:26;7.80;69.50
75621;DHT22;64574;48.506;-2.750;2024-03-08T04:52:54;7.80;69.40
75621;DHT22;64574;48.506;-2.750;2024-03-08T04:55:20;7.80;69.20
75621;DHT22;64574;48.506;-2.750;2024-03-08T04:57:47;7.80;69.40
75621;DHT22;64574;48.506;-2.750;2024-03-08T05:00:13;7.80;69.30
75621;DHT22;64574;48.506;-2.750;2024-03-08T05:02:40;7.70;69.80
75621;DHT22;64574;48.506;-2.750;2024-03-08T05:05:07;7.80;69.50
75621;DHT22;64574;48.506;-2.750;2024-03-08T05:07:33;7.70;69.40
75621;DHT22;64574;48.506;-2.750;2024-03-08T05:09:59;7.70;69.70
75621;DHT22;64574;48.506;-2.750;2024-03-08T05:12:25;7.70;69.40
75621;DHT22;64574;48.506;-2.750;2024-03-08T05:14:51;7.60;69.60
75621;DHT22;64574;48.506;-2.750;2024-03-08T05:17:17;7.60;69.60
75621;DHT22;64574;48.506;-2.750;2024-03-08T05:19:42;7.60;69.60
75621;DHT22;64574;48.506;-2.750;2024-03-08T05:22:09;7.60;69.50
75621;DHT22;64574;48.506;-2.750;2024-03-08T05:24:35;7.70;69.20
75621;DHT22;64574;48.506;-2.750;2024-03-08T05:27:01;7.70;69.20
75621;DHT22;64574;48.506;-2.750;2024-03-08T05:29:29;7.60;69.40
75621;DHT22;64574;48.506;-2.750;2024-03-08T05:31:54;7.70;69.20
75621;DHT22;64574;48.506;-2.750;2024-03-08T05:34:21;7.80;69.00
75621;DHT22;64574;48.506;-2.750;2024-03-08T05:36:48;7.70;68.90
75621;DHT22;64574;48.506;-2.750;2024-03-08T05:39:15;7.80;68.90
75621;DHT22;64574;48.506;-2.750;2024-03-08T05:41:41;7.80;69.00
75621;DHT22;64574;48.506;-2.750;2024-03-08T05:44:08;7.70;69.00
75621;DHT22;64574;48.506;-2.750;2024-03-08T05:46:34;7.70;68.70
75621;DHT22;64574;48.506;-2.750;2024-03-08T05:49:04;7.80;69.00
75621;DHT22;64574;48.506;-2.750;2024-03-08T05:51:37;7.80;68.70
75621;DHT22;64574;48.506;-2.750;2024-03-08T05:54:12;7.80;68.60
75621;DHT22;64574;48.506;-2.750;2024-03-08T05:56:39;7.70;68.50
75621;DHT22;64574;48.506;-2.750;2024-03-08T05:59:07;7.70;68.70
75621;DHT22;64574;48.506;-2.750;2024-03-08T06:01:33;7.60;68.70
75621;DHT22;64574;48.506;-2.750;2024-03-08T06:04:02;7.70;69.10
75621;DHT22;64574;48.506;-2.750;2024-03-08T06:06:28;7.70;68.70
75621;DHT22;64574;48.506;-2.750;2024-03-08T06:08:54;7.60;68.70
75621;DHT22;64574;48.506;-2.750;2024-03-08T06:11:22;7.60;69.00
75621;DHT22;64574;48.506;-2.750;2024-03-08T06:13:48;7.60;68.90
75621;DHT22;64574;48.506;-2.750;2024-03-08T06:16:14;7.70;68.80
75621;DHT22;64574;48.506;-2.750;2024-03-08T06:18:40;7.70;68.70
75621;DHT22;64574;48.506;-2.750;2024-03-08T06:21:07;7.80;68.60
75621;DHT22;64574;48.506;-2.750;2024-03-08T06:23:33;7.60;68.50
75621;DHT22;64574;48.506;-2.750;2024-03-08T06:25:59;7.60;68.70
75621;DHT22;64574;48.506;-2.750;2024-03-08T06:28:24;7.60;68.90
75621;DHT22;64574;48.506;-2.750;2024-03-08T06:30:50;7.60;68.80
75621;DHT22;64574;48.506;-2.750;2024-03-08T06:33:17;7.60;69.00
75621;DHT22;64574;48.506;-2.750;2024-03-08T06:35:43;7.50;68.90
75621;DHT22;64574;48.506;-2.750;2024-03-08T06:38:09;7.60;69.10
75621;DHT22;64574;48.506;-2.750;2024-03-08T06:40:34;7.60;68.70
75621;DHT22;64574;48.506;-2.750;2024-03-08T06:43:00;7.60;68.80
75621;DHT22;64574;48.506;-2.750;2024-03-08T06:45:26;7.60;68.70
75621;DHT22;64574;48.506;-2.750;2024-03-08T06:47:51;7.60;69.00
75621;DHT22;64574;48.506;-2.750;2024-03-08T06:50:17;7.50;68.90
75621;DHT22;64574;48.506;-2.750;2024-03-08T06:52:43;7.50;69.30
75621;DHT22;64574;48.506;-2.750;2024-03-08T06:55:10;7.40;69.80
75621;DHT22;64574;48.506;-2.750;2024-03-08T06:57:41;7.50;69.30
75621;DHT22;64574;48.506;-2.750;2024-03-08T07:00:08;7.50;69.40
75621;DHT22;64574;48.506;-2.750;2024-03-08T07:02:44;7.50;69.30
75621;DHT22;64574;48.506;-2.750;2024-03-08T07:05:11;7.50;69.30
75621;DHT22;64574;48.506;-2.750;2024-03-08T07:07:37;7.50;69.20
75621;DHT22;64574;48.506;-2.750;2024-03-08T07:10:03;7.50;69.30
75621;DHT22;64574;48.506;-2.750;2024-03-08T07:12:30;7.50;69.30
75621;DHT22;64574;48.506;-2.750;2024-03-08T07:14:55;7.50;69.10
75621;DHT22;64574;48.506;-2.750;2024-03-08T07:17:21;7.50;69.40
75621;DHT22;64574;48.506;-2.750;2024-03-08T07:19:47;7.50;69.30
75621;DHT22;64574;48.506;-2.750;2024-03-08T07:22:13;7.50;69.10
75621;DHT22;64574;48.506;-2.750;2024-03-08T07:24:40;7.50;69.00
75621;DHT22;64574;48.506;-2.750;2024-03-08T07:27:23;7.50;69.30
75621;DHT22;64574;48.506;-2.750;2024-03-08T07:29:49;7.50;69.20
75621;DHT22;64574;48.506;-2.750;2024-03-08T07:32:15;7.60;69.10
75621;DHT22;64574;48.506;-2.750;2024-03-08T07:34:49;7.50;69.10
75621;DHT22;64574;48.506;-2.750;2024-03-08T07:37:16;7.50;68.80
75621;DHT22;64574;48.506;-2.750;2024-03-08T07:39:42;7.50;69.30
75621;DHT22;64574;48.506;-2.750;2024-03-08T07:42:09;7.50;69.20
75621;DHT22;64574;48.506;-2.750;2024-03-08T07:44:35;7.60;69.10
75621;DHT22;64574;48.506;-2.750;2024-03-08T07:47:01;7.60;69.00
75621;DHT22;64574;48.506;-2.750;2024-03-08T07:49:26;7.50;68.70
75621;DHT22;64574;48.506;-2.750;2024-03-08T07:51:52;7.50;69.10
75621;DHT22;64574;48.506;-2.750;2024-03-08T07:54:18;7.60;69.00
75621;DHT22;64574;48.506;-2.750;2024-03-08T07:56:44;7.60;69.20
75621;DHT22;64574;48.506;-2.750;2024-03-08T07:59:10;7.60;69.10
75621;DHT22;64574;48.506;-2.750;2024-03-08T08:01:37;7.60;69.00
75621;DHT22;64574;48.506;-2.750;2024-03-08T08:04:03;7.60;68.70
75621;DHT22;64574;48.506;-2.750;2024-03-08T08:06:29;7.70;69.00
75621;DHT22;64574;48.506;-2.750;2024-03-08T08:08:58;7.80;68.60
75621;DHT22;64574;48.506;-2.750;2024-03-08T08:11:26;7.70;68.50
75621;DHT22;64574;48.506;-2.750;2024-03-08T08:13:54;7.60;69.20
75621;DHT22;64574;48.506;-2.750;2024-03-08T08:16:23;7.70;69.00
75621;DHT22;64574;48.506;-2.750;2024-03-08T08:18:49;7.70;68.80
75621;DHT22;64574;48.506;-2.750;2024-03-08T08:21:15;7.80;68.80
75621;DHT22;64574;48.506;-2.750;2024-03-08T08:23:41;7.80;68.80
75621;DHT22;64574;48.506;-2.750;2024-03-08T08:26:06;7.80;69.00
75621;DHT22;64574;48.506;-2.750;2024-03-08T08:28:33;7.80;68.70
75621;DHT22;64574;48.506;-2.750;2024-03-08T08:30:59;7.80;68.90
75621;DHT22;64574;48.506;-2.750;2024-03-08T08:33:25;7.80;68.90
75621;DHT22;64574;48.506;-2.750;2024-03-08T08:35:51;7.80;69.00
75621;DHT22;64574;48.506;-2.750;2024-03-08T08:38:19;7.80;68.90
75621;DHT22;64574;48.506;-2.750;2024-03-08T08:40:45;8.00;68.50
75621;DHT22;64574;48.506;-2.750;2024-03-08T08:43:12;8.00;68.60
75621;DHT22;64574;48.506;-2.750;2024-03-08T08:45:38;8.00;68.50
75621;DHT22;64574;48.506;-2.750;2024-03-08T08:48:04;8.00;68.40
75621;DHT22;64574;48.506;-2.750;2024-03-08T08:50:30;8.00;68.20
75621;DHT22;64574;48.506;-2.750;2024-03-08T08:52:56;7.80;68.60
75621;DHT22;64574;48.506;-2.750;2024-03-08T08:55:22;8.00;68.60
75621;DHT22;64574;48.506;-2.750;2024-03-08T08:57:51;7.90;68.60
75621;DHT22;64574;48.506;-2.750;2024-03-08T09:00:21;8.00;68.60
75621;DHT22;64574;48.506;-2.750;2024-03-08T09:02:51;7.80;68.70
75621;DHT22;64574;48.506;-2.750;2024-03-08T09:05:20;8.00;68.70
75621;DHT22;64574;48.506;-2.750;2024-03-08T09:07:47;7.80;68.70
75621;DHT22;64574;48.506;-2.750;2024-03-08T09:10:12;7.80;68.90
75621;DHT22;64574;48.506;-2.750;2024-03-08T09:12:39;7.90;68.60
75621;DHT22;64574;48.506;-2.750;2024-03-08T09:15:06;7.80;68.70
75621;DHT22;64574;48.506;-2.750;2024-03-08T09:17:34;7.90;68.90
75621;DHT22;64574;48.506;-2.750;2024-03-08T09:19:59;8.00;68.70
75621;DHT22;64574;48.506;-2.750;2024-03-08T09:22:25;8.00;69.00
75621;DHT22;64574;48.506;-2.750;2024-03-08T09:24:51;8.30;68.40
75621;DHT22;64574;48.506;-2.750;2024-03-08T09:27:17;8.20;68.00
75621;DHT22;64574;48.506;-2.750;2024-03-08T09:29:43;8.20;68.20
75621;DHT22;64574;48.506;-2.750;2024-03-08T09:32:10;8.20;68.30
75621;DHT22;64574;48.506;-2.750;2024-03-08T09:34:37;8.20;68.20
75621;DHT22;64574;48.506;-2.750;2024-03-08T09:37:03;8.30;68.30
75621;DHT22;64574;48.506;-2.750;2024-03-08T09:39:30;8.30;68.30
75621;DHT22;64574;48.506;-2.750;2024-03-08T09:41:55;8.30;68.20
75621;DHT22;64574;48.506;-2.750;2024-03-08T09:44:22;8.40;68.20
75621;DHT22;64574;48.506;-2.750;2024-03-08T09:46:49;8.40;68.00
75621;DHT22;64574;48.506;-2.750;2024-03-08T09:49:19;8.50;68.00
75621;DHT22;64574;48.506;-2.750;2024-03-08T09:51:45;8.40;68.00
75621;DHT22;64574;48.506;-2.750;2024-03-08T09:54:11;8.50;68.20
75621;DHT22;64574;48.506;-2.750;2024-03-08T09:56:39;8.60;67.90
75621;DHT22;64574;48.506;-2.750;2024-03-08T09:59:09;8.60;67.90
75621;DHT22;64574;48.506;-2.750;2024-03-08T10:01:53;8.50;68.00
75621;DHT22;64574;48.506;-2.750;2024-03-08T10:04:22;8.60;68.10
75621;DHT22;64574;48.506;-2.750;2024-03-08T10:06:48;8.80;67.90
75621;DHT22;64574;48.506;-2.750;2024-03-08T10:09:14;8.90;67.50
75621;DHT22;64574;48.506;-2.750;2024-03-08T10:11:41;8.80;67.80
75621;DHT22;64574;48.506;-2.750;2024-03-08T10:14:09;8.80;68.00
75621;DHT22;64574;48.506;-2.750;2024-03-08T10:16:34;8.70;67.90
75621;DHT22;64574;48.506;-2.750;2024-03-08T10:19:00;8.60;68.20
75621;DHT22;64574;48.506;-2.750;2024-03-08T10:21:26;8.80;68.40
75621;DHT22;64574;48.506;-2.750;2024-03-08T10:23:52;8.80;68.20
75621;DHT22;64574;48.506;-2.750;2024-03-08T10:26:19;8.80;68.20
75621;DHT22;64574;48.506;-2.750;2024-03-08T10:28:48;8.80;68.10
75621;DHT22;64574;48.506;-2.750;2024-03-08T10:31:14;8.90;68.00
75621;DHT22;64574;48.506;-2.750;2024-03-08T10:33:41;9.00;68.10
75621;DHT22;64574;48.506;-2.750;2024-03-08T10:36:10;9.00;68.30
75621;DHT22;64574;48.506;-2.750;2024-03-08T10:38:43;9.00;68.30
75621;DHT22;64574;48.506;-2.750;2024-03-08T10:41:12;9.00;68.20
75621;DHT22;64574;48.506;-2.750;2024-03-08T10:46:47;9.20;67.90
75621;DHT22;64574;48.506;-2.750;2024-03-08T10:49:25;9.20;67.80
75621;DHT22;64574;48.506;-2.750;2024-03-08T10:51:52;9.20;67.90
75621;DHT22;64574;48.506;-2.750;2024-03-08T10:54:19;9.30;67.90
75621;DHT22;64574;48.506;-2.750;2024-03-08T10:56:48;9.40;67.80
75621;DHT22;64574;48.506;-2.750;2024-03-08T10:59:15;9.40;67.70
75621;DHT22;64574;48.506;-2.750;2024-03-08T11:01:42;9.50;67.80
75621;DHT22;64574;48.506;-2.750;2024-03-08T11:04:08;9.40;68.00
75621;DHT22;64574;48.506;-2.750;2024-03-08T11:09:02;9.60;68.10
75621;DHT22;64574;48.506;-2.750;2024-03-08T11:13:56;9.60;68.00
75621;DHT22;64574;48.506;-2.750;2024-03-08T11:21:43;9.60;68.40
75621;DHT22;64574;48.506;-2.750;2024-03-08T11:24:12;9.50;68.10
75621;DHT22;64574;48.506;-2.750;2024-03-08T11:26:39;9.50;68.30
75621;DHT22;64574;48.506;-2.750;2024-03-08T11:31:52;9.60;68.20
75621;DHT22;64574;48.506;-2.750;2024-03-08T11:34:19;9.60;68.40
75621;DHT22;64574;48.506;-2.750;2024-03-08T11:36:48;9.70;68.40
75621;DHT22;64574;48.506;-2.750;2024-03-08T11:39:13;9.80;68.60
75621;DHT22;64574;48.506;-2.750;2024-03-08T11:41:40;9.90;68.40
75621;DHT22;64574;48.506;-2.750;2024-03-08T11:44:07;10.00;68.40
75621;DHT22;64574;48.506;-2.750;2024-03-08T11:46:33;10.00;68.40
75621;DHT22;64574;48.506;-2.750;2024-03-08T11:48:59;10.00;68.50
75621;DHT22;64574;48.506;-2.750;2024-03-08T11:51:26;10.00;68.40
75621;DHT22;64574;48.506;-2.750;2024-03-08T11:53:52;10.00;68.40
75621;DHT22;64574;48.506;-2.750;2024-03-08T11:56:18;10.10;68.30
75621;DHT22;64574;48.506;-2.750;2024-03-08T11:58:54;10.20;68.40
75621;DHT22;64574;48.506;-2.750;2024-03-08T12:01:23;10.20;68.40
75621;DHT22;64574;48.506;-2.750;2024-03-08T12:03:57;10.20;68.20
75621;DHT22;64574;48.506;-2.750;2024-03-08T12:06:24;10.20;68.60
75621;DHT22;64574;48.506;-2.750;2024-03-08T12:08:50;10.30;68.60
75621;DHT22;64574;48.506;-2.750;2024-03-08T12:11:20;10.40;68.40
75621;DHT22;64574;48.506;-2.750;2024-03-08T12:13:48;10.30;68.40
75621;DHT22;64574;48.506;-2.750;2024-03-08T12:16:16;10.30;68.60
75621;DHT22;64574;48.506;-2.750;2024-03-08T12:18:43;10.20;69.00
75621;DHT22;64574;48.506;-2.750;2024-03-08T12:21:10;10.30;69.10
75621;DHT22;64574;48.506;-2.750;2024-03-08T12:23:36;10.30;69.00
75621;DHT22;64574;48.506;-2.750;2024-03-08T12:26:15;10.30;69.10
75621;DHT22;64574;48.506;-2.750;2024-03-08T12:28:45;10.30;69.20
75621;DHT22;64574;48.506;-2.750;2024-03-08T12:31:15;10.30;69.30
75621;DHT22;64574;48.506;-2.750;2024-03-08T12:36:18;10.40;69.00
75621;DHT22;64574;48.506;-2.750;2024-03-08T12:38:44;10.40;69.20
75621;DHT22;64574;48.506;-2.750;2024-03-08T12:41:13;10.40;69.20
75621;DHT22;64574;48.506;-2.750;2024-03-08T12:43:39;10.50;69.40
75621;DHT22;64574;48.506;-2.750;2024-03-08T12:46:05;10.50;69.40
75621;DHT22;64574;48.506;-2.750;2024-03-08T12:48:34;10.50;69.40
75621;DHT22;64574;48.506;-2.750;2024-03-08T12:51:01;10.50;69.30
75621;DHT22;64574;48.506;-2.750;2024-03-08T12:53:26;10.60;69.30
75621;DHT22;64574;48.506;-2.750;2024-03-08T12:55:54;10.50;69.20
75621;DHT22;64574;48.506;-2.750;2024-03-08T12:58:22;10.50;69.20
75621;DHT22;64574;48.506;-2.750;2024-03-08T13:00:47;10.50;69.40
75621;DHT22;64574;48.506;-2.750;2024-03-08T13:03:13;10.50;69.50
75621;DHT22;64574;48.506;-2.750;2024-03-08T13:05:39;10.60;69.40
75621;DHT22;64574;48.506;-2.750;2024-03-08T13:08:06;10.70;69.50
75621;DHT22;64574;48.506;-2.750;2024-03-08T13:10:38;10.80;69.30
75621;DHT22;64574;48.506;-2.750;2024-03-08T13:13:03;10.80;69.40
75621;DHT22;64574;48.506;-2.750;2024-03-08T13:15:30;10.90;69.20
75621;DHT22;64574;48.506;-2.750;2024-03-08T13:17:56;10.90;69.30
75621;DHT22;64574;48.506;-2.750;2024-03-08T13:20:25;11.00;69.10
75621;DHT22;64574;48.506;-2.750;2024-03-08T13:22:53;11.10;69.00
75621;DHT22;64574;48.506;-2.750;2024-03-08T13:25:19;11.10;69.00
75621;DHT22;64574;48.506;-2.750;2024-03-08T13:27:45;11.10;68.90
75621;DHT22;64574;48.506;-2.750;2024-03-08T13:30:12;11.10;69.10
75621;DHT22;64574;48.506;-2.750;2024-03-08T13:32:40;11.10;69.00
75621;DHT22;64574;48.506;-2.750;2024-03-08T13:35:09;11.10;69.20
75621;DHT22;64574;48.506;-2.750;2024-03-08T13:37:49;11.10;69.20
75621;DHT22;64574;48.506;-2.750;2024-03-08T13:40:15;11.30;69.10
75621;DHT22;64574;48.506;-2.750;2024-03-08T13:42:44;11.40;68.70
75621;DHT22;64574;48.506;-2.750;2024-03-08T13:45:09;11.30;68.70
75621;DHT22;64574;48.506;-2.750;2024-03-08T13:47:41;11.50;68.80
75621;DHT22;64574;48.506;-2.750;2024-03-08T13:50:10;11.60;68.30
75621;DHT22;64574;48.506;-2.750;2024-03-08T13:52:41;11.70;68.10
75621;DHT22;64574;48.506;-2.750;2024-03-08T13:55:09;11.70;68.10
75621;DHT22;64574;48.506;-2.750;2024-03-08T13:57:35;11.60;68.10
75621;DHT22;64574;48.506;-2.750;2024-03-08T14:00:01;11.60;68.10
75621;DHT22;64574;48.506;-2.750;2024-03-08T14:02:28;11.50;68.20
75621;DHT22;64574;48.506;-2.750;2024-03-08T14:04:56;11.50;68.30
75621;DHT22;64574;48.506;-2.750;2024-03-08T14:07:22;11.50;68.40
75621;DHT22;64574;48.506;-2.750;2024-03-08T14:09:49;11.50;68.70
75621;DHT22;64574;48.506;-2.750;2024-03-08T14:12:15;11.50;68.90
75621;DHT22;64574;48.506;-2.750;2024-03-08T14:14:41;11.50;68.80
75621;DHT22;64574;48.506;-2.750;2024-03-08T14:17:10;11.40;68.80
75621;DHT22;64574;48.506;-2.750;2024-03-08T14:19:36;11.40;68.90
75621;DHT22;64574;48.506;-2.750;2024-03-08T14:22:04;11.40;68.90
75621;DHT22;64574;48.506;-2.750;2024-03-08T14:24:30;11.40;68.90
75621;DHT22;64574;48.506;-2.750;2024-03-08T14:26:57;11.40;69.00
75621;DHT22;64574;48.506;-2.750;2024-03-08T14:29:27;11.40;69.00
75621;DHT22;64574;48.506;-2.750;2024-03-08T14:31:55;11.50;68.90
75621;DHT22;64574;48.506;-2.750;2024-03-08T14:34:24;11.50;68.60
75621;DHT22;64574;48.506;-2.750;2024-03-08T14:36:52;11.50;68.50
75621;DHT22;64574;48.506;-2.750;2024-03-08T14:39:19;11.50;68.90
75621;DHT22;64574;48.506;-2.750;2024-03-08T14:41:52;11.50;69.00
75621;DHT22;64574;48.506;-2.750;2024-03-08T14:44:22;11.50;69.00
75621;DHT22;64574;48.506;-2.750;2024-03-08T14:46:55;11.40;69.20
75621;DHT22;64574;48.506;-2.750;2024-03-08T14:49:22;11.30;69.50
75621;DHT22;64574;48.506;-2.750;2024-03-08T14:51:48;11.30;69.60
75621;DHT22;64574;48.506;-2.750;2024-03-08T14:54:13;11.30;69.70
75621;DHT22;64574;48.506;-2.750;2024-03-08T14:56:39;11.30;69.80
75621;DHT22;64574;48.506;-2.750;2024-03-08T14:59:08;11.30;69.80
75621;DHT22;64574;48.506;-2.750;2024-03-08T15:01:35;11.20;70.00
75621;DHT22;64574;48.506;-2.750;2024-03-08T15:04:02;11.10;70.10
75621;DHT22;64574;48.506;-2.750;2024-03-08T15:06:38;11.00;70.20
75621;DHT22;64574;48.506;-2.750;2024-03-08T15:09:04;11.00;70.20
75621;DHT22;64574;48.506;-2.750;2024-03-08T15:11:40;11.00;70.30
75621;DHT22;64574;48.506;-2.750;2024-03-08T15:14:08;11.00;70.50
75621;DHT22;64574;48.506;-2.750;2024-03-08T15:16:37;11.00;70.50
75621;DHT22;64574;48.506;-2.750;2024-03-08T15:19:05;11.00;70.70
75621;DHT22;64574;48.506;-2.750;2024-03-08T15:21:31;11.00;70.70
75621;DHT22;64574;48.506;-2.750;2024-03-08T15:23:56;11.00;70.60
75621;DHT22;64574;48.506;-2.750;2024-03-08T15:26:22;11.00;70.60
75621;DHT22;64574;48.506;-2.750;2024-03-08T15:28:48;11.00;70.70
75621;DHT22;64574;48.506;-2.750;2024-03-08T15:31:17;11.10;70.80
75621;DHT22;64574;48.506;-2.750;2024-03-08T15:33:45;11.00;70.80
75621;DHT22;64574;48.506;-2.750;2024-03-08T15:36:14;11.10;70.80
75621;DHT22;64574;48.506;-2.750;2024-03-08T15:38:42;11.10;70.80
75621;DHT22;64574;48.506;-2.750;2024-03-08T15:41:12;11.10;70.80
75621;DHT22;64574;48.506;-2.750;2024-03-08T15:43:39;11.10;70.70
75621;DHT22;64574;48.506;-2.750;2024-03-08T15:46:10;11.10;70.70